sensor_id;sensor_type;location;lat;lon;timestamp;temperature;humidity
40534;DHT22;26233;51.894;10.192;2022-12-18T00:01:21;0.10;34.50
40534;DHT22;26233;51.894;10.192;2022-12-18T00:03:50;0.00;34.50
40534;DHT22;26233;51.894;10.192;2022-12-18T00:06:18;0.00;34.50
40534;DHT22;26233;51.894;10.192;2022-12-18T00:08:48;0.00;34.50
40534;DHT22;26233;51.894;10.192;2022-12-18T00:11:18;0.00;34.50
40534;DHT22;26233;51.894;10.192;2022-12-18T00:13:47;-0.10;34.50
40534;DHT22;26233;51.894;10.192;2022-12-18T00:16:15;-0.10;34.50
40534;DHT22;26233;51.894;10.192;2022-12-18T00:18:47;-0.10;34.50
40534;DHT22;26233;51.894;10.192;2022-12-18T00:21:14;-0.10;34.60
40534;DHT22;26233;51.894;10.192;2022-12-18T00:23:43;-0.10;34.70
40534;DHT22;26233;51.894;10.192;2022-12-18T00:26:16;-0.10;34.80
40534;DHT22;26233;51.894;10.192;2022-12-18T00:28:44;-0.10;34.80
40534;DHT22;26233;51.894;10.192;2022-12-18T00:31:13;-0.10;34.80
40534;DHT22;26233;51.894;10.192;2022-12-18T00:33:44;-0.10;34.80
40534;DHT22;26233;51.894;10.192;2022-12-18T00:36:15;-0.10;34.80
40534;DHT22;26233;51.894;10.192;2022-12-18T00:38:44;-0.10;34.80
40534;DHT22;26233;51.894;10.192;2022-12-18T00:41:13;-0.10;34.80
40534;DHT22;26233;51.894;10.192;2022-12-18T00:44:00;0.00;34.90
40534;DHT22;26233;51.894;10.192;2022-12-18T00:46:27;-0.10;34.80
40534;DHT22;26233;51.894;10.192;2022-12-18T00:48:54;-0.10;34.80
40534;DHT22;26233;51.894;10.192;2022-12-18T00:51:22;0.00;35.00
40534;DHT22;26233;51.894;10.192;2022-12-18T00:53:49;0.00;35.00
40534;DHT22;26233;51.894;10.192;2022-12-18T00:56:16;0.00;35.00
40534;DHT22;26233;51.894;10.192;2022-12-18T00:58:43;0.10;35.10
40534;DHT22;26233;51.894;10.192;2022-12-18T01:01:10;0.10;35.10
40534;DHT22;26233;51.894;10.192;2022-12-18T01:03:37;0.10;35.10
40534;DHT22;26233;51.894;10.192;2022-12-18T01:06:06;0.20;35.20
40534;DHT22;26233;51.894;10.192;2022-12-18T01:08:35;0.20;35.20
40534;DHT22;26233;51.894;10.192;2022-12-18T01:11:08;0.30;35.20
40534;DHT22;26233;51.894;10.192;2022-12-18T01:13:35;0.40;35.30
40534;DHT22;26233;51.894;10.192;2022-12-18T01:16:03;0.40;35.30
40534;DHT22;26233;51.894;10.192;2022-12-18T01:18:31;0.50;35.30
40534;DHT22;26233;51.894;10.192;2022-12-18T01:21:05;0.50;35.20
40534;DHT22;26233;51.894;10.192;2022-12-18T01:23:33;0.50;35.00
40534;DHT22;26233;51.894;10.192;2022-12-18T01:26:05;0.50;34.80
40534;DHT22;26233;51.894;10.192;2022-12-18T01:28:32;0.40;34.60
40534;DHT22;26233;51.894;10.192;2022-12-18T01:31:10;0.40;34.50
40534;DHT22;26233;51.894;10.192;2022-12-18T01:33:38;0.30;34.40
40534;DHT22;26233;51.894;10.192;2022-12-18T01:36:05;0.20;34.40
40534;DHT22;26233;51.894;10.192;2022-12-18T01:38:35;0.10;34.50
40534;DHT22;26233;51.894;10.192;2022-12-18T01:41:02;0.10;34.50
40534;DHT22;26233;51.894;10.192;2022-12-18T01:43:47;0.10;34.60
40534;DHT22;26233;51.894;10.192;2022-12-18T01:46:17;0.00;34.50
40534;DHT22;26233;51.894;10.192;2022-12-18T01:48:46;0.00;34.60
40534;DHT22;26233;51.894;10.192;2022-12-18T01:51:17;0.00;34.60
40534;DHT22;26233;51.894;10.192;2022-12-18T01:53:48;-0.10;34.70
40534;DHT22;26233;51.894;10.192;2022-12-18T01:56:18;-0.10;34.70
40534;DHT22;26233;51.894;10.192;2022-12-18T01:58:53;-0.10;34.80
40534;DHT22;26233;51.894;10.192;2022-12-18T02:01:24;0.00;34.90
40534;DHT22;26233;51.894;10.192;2022-12-18T02:03:51;0.00;35.00
40534;DHT22;26233;51.894;10.192;2022-12-18T02:06:23;0.10;35.00
40534;DHT22;26233;51.894;10.192;2022-12-18T02:09:04;0.10;35.10
40534;DHT22;26233;51.894;10.192;2022-12-18T02:11:42;0.20;35.20
40534;DHT22;26233;51.894;10.192;2022-12-18T02:14:19;0.20;35.20
40534;DHT22;26233;51.894;10.192;2022-12-18T02:16:54;0.30;35.20
40534;DHT22;26233;51.894;10.192;2022-12-18T02:19:46;0.40;35.20
40534;DHT22;26233;51.894;10.192;2022-12-18T02:22:27;0.40;35.10
40534;DHT22;26233;51.894;10.192;2022-12-18T02:25:10;0.40;35.10
40534;DHT22;26233;51.894;10.192;2022-12-18T02:27:45;0.40;35.00
40534;DHT22;26233;51.894;10.192;2022-12-18T02:30:14;0.50;35.10
40534;DHT22;26233;51.894;10.192;2022-12-18T02:32:44;0.50;35.20
40534;DHT22;26233;51.894;10.192;2022-12-18T02:35:17;0.50;35.10
40534;DHT22;26233;51.894;10.192;2022-12-18T02:37:48;0.50;34.90
40534;DHT22;26233;51.894;10.192;2022-12-18T02:40:17;0.50;34.80
40534;DHT22;26233;51.894;10.192;2022-12-18T02:42:46;0.50;34.70
40534;DHT22;26233;51.894;10.192;2022-12-18T02:45:13;0.40;34.50
40534;DHT22;26233;51.894;10.192;2022-12-18T02:47:43;0.30;34.50
40534;DHT22;26233;51.894;10.192;2022-12-18T02:50:18;0.20;34.40
40534;DHT22;26233;51.894;10.192;2022-12-18T02:52:56;0.10;34.30
40534;DHT22;26233;51.894;10.192;2022-12-18T02:55:39;0.00;34.20
40534;DHT22;26233;51.894;10.192;2022-12-18T02:58:17;-0.10;34.80
40534;DHT22;26233;51.894;10.192;2022-12-18T03:00:51;-0.10;34.30
40534;DHT22;26233;51.894;10.192;2022-12-18T03:03:26;-0.20;34.30
40534;DHT22;26233;51.894;10.192;2022-12-18T03:06:00;-0.30;34.30
40534;DHT22;26233;51.894;10.192;2022-12-18T03:08:32;-0.30;34.40
40534;DHT22;26233;51.894;10.192;2022-12-18T03:11:03;-0.40;34.30
40534;DHT22;26233;51.894;10.192;2022-12-18T03:13:35;-0.40;34.40
40534;DHT22;26233;51.894;10.192;2022-12-18T03:16:06;-0.50;34.40
40534;DHT22;26233;51.894;10.192;2022-12-18T03:18:38;-0.50;34.40
40534;DHT22;26233;51.894;10.192;2022-12-18T03:21:10;-0.50;35.00
40534;DHT22;26233;51.894;10.192;2022-12-18T03:23:42;-0.60;34.40
40534;DHT22;26233;51.894;10.192;2022-12-18T03:26:14;-0.60;34.50
40534;DHT22;26233;51.894;10.192;2022-12-18T03:28:48;-0.60;34.50
40534;DHT22;26233;51.894;10.192;2022-12-18T03:31:18;-0.60;34.60
40534;DHT22;26233;51.894;10.192;2022-12-18T03:33:50;-0.60;34.70
40534;DHT22;26233;51.894;10.192;2022-12-18T03:36:18;-0.60;34.70
40534;DHT22;26233;51.894;10.192;2022-12-18T03:38:46;-0.60;34.70
40534;DHT22;26233;51.894;10.192;2022-12-18T03:41:17;-0.60;34.80
40534;DHT22;26233;51.894;10.192;2022-12-18T03:43:51;-0.50;35.10
40534;DHT22;26233;51.894;10.192;2022-12-18T03:46:26;-0.60;34.90
40534;DHT22;26233;51.894;10.192;2022-12-18T03:49:01;-0.40;35.10
40534;DHT22;26233;51.894;10.192;2022-12-18T03:51:39;-0.30;35.10
40534;DHT22;26233;51.894;10.192;2022-12-18T03:54:10;-0.30;35.00
40534;DHT22;26233;51.894;10.192;2022-12-18T03:56:40;-0.20;35.00
40534;DHT22;26233;51.894;10.192;2022-12-18T03:59:13;-0.20;34.90
40534;DHT22;26233;51.894;10.192;2022-12-18T04:01:45;-0.20;34.90
40534;DHT22;26233;51.894;10.192;2022-12-18T04:04:14;-0.10;35.00
40534;DHT22;26233;51.894;10.192;2022-12-18T04:06:42;-0.10;35.60
40534;DHT22;26233;51.894;10.192;2022-12-18T04:09:10;-0.10;35.00
40534;DHT22;26233;51.894;10.192;2022-12-18T04:11:37;0.00;35.10
40534;DHT22;26233;51.894;10.192;2022-12-18T04:14:04;0.00;35.70
40534;DHT22;26233;51.894;10.192;2022-12-18T04:16:32;0.00;35.00
40534;DHT22;26233;51.894;10.192;2022-12-18T04:18:59;0.00;35.00
40534;DHT22;26233;51.894;10.192;2022-12-18T04:21:26;0.10;35.00
40534;DHT22;26233;51.894;10.192;2022-12-18T04:23:53;0.10;34.90
40534;DHT22;26233;51.894;10.192;2022-12-18T04:26:20;0.10;34.90
40534;DHT22;26233;51.894;10.192;2022-12-18T04:28:48;0.10;34.90
40534;DHT22;26233;51.894;10.192;2022-12-18T04:31:15;0.10;35.40
40534;DHT22;26233;51.894;10.192;2022-12-18T04:33:45;0.00;34.70
40534;DHT22;26233;51.894;10.192;2022-12-18T04:36:13;0.00;34.70
40534;DHT22;26233;51.894;10.192;2022-12-18T04:38:44;0.00;34.50
40534;DHT22;26233;51.894;10.192;2022-12-18T04:41:10;-0.10;34.40
40534;DHT22;26233;51.894;10.192;2022-12-18T04:43:39;-0.20;34.30
40534;DHT22;26233;51.894;10.192;2022-12-18T04:46:07;-0.20;34.30
40534;DHT22;26233;51.894;10.192;2022-12-18T04:48:36;-0.40;34.20
40534;DHT22;26233;51.894;10.192;2022-12-18T04:51:05;-0.40;34.30
40534;DHT22;26233;51.894;10.192;2022-12-18T04:53:33;-0.50;34.30
40534;DHT22;26233;51.894;10.192;2022-12-18T04:56:05;-0.50;34.40
40534;DHT22;26233;51.894;10.192;2022-12-18T04:58:33;-0.50;34.40
40534;DHT22;26233;51.894;10.192;2022-12-18T05:01:00;-0.60;34.40
40534;DHT22;26233;51.894;10.192;2022-12-18T05:03:28;-0.60;34.40
40534;DHT22;26233;51.894;10.192;2022-12-18T05:05:55;-0.70;34.40
40534;DHT22;26233;51.894;10.192;2022-12-18T05:08:24;-0.70;34.50
40534;DHT22;26233;51.894;10.192;2022-12-18T05:10:58;-0.70;34.50
40534;DHT22;26233;51.894;10.192;2022-12-18T05:13:26;-0.70;34.60
40534;DHT22;26233;51.894;10.192;2022-12-18T05:16:01;-0.70;34.70
40534;DHT22;26233;51.894;10.192;2022-12-18T05:18:28;-0.70;34.70
40534;DHT22;26233;51.894;10.192;2022-12-18T05:20:55;-0.70;34.80
40534;DHT22;26233;51.894;10.192;2022-12-18T05:23:24;-0.60;34.90
40534;DHT22;26233;51.894;10.192;2022-12-18T05:25:52;-0.60;34.90
40534;DHT22;26233;51.894;10.192;2022-12-18T05:28:20;-0.60;34.90
40534;DHT22;26233;51.894;10.192;2022-12-18T05:30:49;-0.50;35.00
40534;DHT22;26233;51.894;10.192;2022-12-18T05:33:16;-0.50;35.10
40534;DHT22;26233;51.894;10.192;2022-12-18T05:35:50;-0.50;35.10
40534;DHT22;26233;51.894;10.192;2022-12-18T05:38:17;-0.40;35.10
40534;DHT22;26233;51.894;10.192;2022-12-18T05:40:47;-0.30;35.20
40534;DHT22;26233;51.894;10.192;2022-12-18T05:43:15;-0.20;35.20
40534;DHT22;26233;51.894;10.192;2022-12-18T05:45:42;-0.10;35.30
40534;DHT22;26233;51.894;10.192;2022-12-18T05:48:09;-0.10;35.20
40534;DHT22;26233;51.894;10.192;2022-12-18T05:50:37;0.00;35.20
40534;DHT22;26233;51.894;10.192;2022-12-18T05:53:05;0.10;35.40
40534;DHT22;26233;51.894;10.192;2022-12-18T05:55:33;0.10;35.40
40534;DHT22;26233;51.894;10.192;2022-12-18T05:58:05;0.20;35.50
40534;DHT22;26233;51.894;10.192;2022-12-18T06:00:35;0.20;35.40
40534;DHT22;26233;51.894;10.192;2022-12-18T06:03:05;0.30;35.40
40534;DHT22;26233;51.894;10.192;2022-12-18T06:05:35;0.40;35.50
40534;DHT22;26233;51.894;10.192;2022-12-18T06:08:03;0.40;35.50
40534;DHT22;26233;51.894;10.192;2022-12-18T06:10:30;0.50;35.50
40534;DHT22;26233;51.894;10.192;2022-12-18T06:12:57;0.50;35.50
40534;DHT22;26233;51.894;10.192;2022-12-18T06:15:26;0.60;35.50
40534;DHT22;26233;51.894;10.192;2022-12-18T06:17:53;0.60;35.50
40534;DHT22;26233;51.894;10.192;2022-12-18T06:20:20;0.60;35.50
40534;DHT22;26233;51.894;10.192;2022-12-18T06:22:47;0.60;35.50
40534;DHT22;26233;51.894;10.192;2022-12-18T06:25:14;0.70;35.60
40534;DHT22;26233;51.894;10.192;2022-12-18T06:27:42;0.70;35.50
40534;DHT22;26233;51.894;10.192;2022-12-18T06:30:10;0.70;35.50
40534;DHT22;26233;51.894;10.192;2022-12-18T06:32:39;0.70;35.50
40534;DHT22;26233;51.894;10.192;2022-12-18T06:35:07;0.80;35.50
40534;DHT22;26233;51.894;10.192;2022-12-18T06:37:34;0.80;35.50
40534;DHT22;26233;51.894;10.192;2022-12-18T06:40:01;0.80;35.50
40534;DHT22;26233;51.894;10.192;2022-12-18T06:42:29;0.80;35.50
40534;DHT22;26233;51.894;10.192;2022-12-18T06:44:56;0.80;35.40
40534;DHT22;26233;51.894;10.192;2022-12-18T06:47:23;0.80;35.40
40534;DHT22;26233;51.894;10.192;2022-12-18T06:49:51;0.80;35.40
40534;DHT22;26233;51.894;10.192;2022-12-18T06:52:18;0.90;35.50
40534;DHT22;26233;51.894;10.192;2022-12-18T06:54:45;0.90;35.40
40534;DHT22;26233;51.894;10.192;2022-12-18T06:57:12;0.90;35.40
40534;DHT22;26233;51.894;10.192;2022-12-18T06:59:39;0.90;35.40
40534;DHT22;26233;51.894;10.192;2022-12-18T07:02:09;0.90;35.40
40534;DHT22;26233;51.894;10.192;2022-12-18T07:04:37;0.90;35.30
40534;DHT22;26233;51.894;10.192;2022-12-18T07:07:05;1.00;35.40
40534;DHT22;26233;51.894;10.192;2022-12-18T07:09:33;1.00;35.30
40534;DHT22;26233;51.894;10.192;2022-12-18T07:12:00;1.00;35.20
40534;DHT22;26233;51.894;10.192;2022-12-18T07:14:27;0.90;35.00
40534;DHT22;26233;51.894;10.192;2022-12-18T07:16:54;0.90;34.90
40534;DHT22;26233;51.894;10.192;2022-12-18T07:19:21;0.90;34.90
40534;DHT22;26233;51.894;10.192;2022-12-18T07:21:50;0.80;34.70
40534;DHT22;26233;51.894;10.192;2022-12-18T07:24:19;0.70;34.60
40534;DHT22;26233;51.894;10.192;2022-12-18T07:26:46;0.70;35.20
40534;DHT22;26233;51.894;10.192;2022-12-18T07:29:14;0.60;34.60
40534;DHT22;26233;51.894;10.192;2022-12-18T07:31:41;0.50;34.50
40534;DHT22;26233;51.894;10.192;2022-12-18T07:34:10;0.40;34.50
40534;DHT22;26233;51.894;10.192;2022-12-18T07:36:38;0.40;34.50
40534;DHT22;26233;51.894;10.192;2022-12-18T07:39:05;0.30;34.50
40534;DHT22;26233;51.894;10.192;2022-12-18T07:41:33;0.30;34.50
40534;DHT22;26233;51.894;10.192;2022-12-18T07:44:00;0.20;34.50
40534;DHT22;26233;51.894;10.192;2022-12-18T07:46:27;0.20;34.50
40534;DHT22;26233;51.894;10.192;2022-12-18T07:48:54;0.10;34.40
40534;DHT22;26233;51.894;10.192;2022-12-18T07:51:21;0.00;34.30
40534;DHT22;26233;51.894;10.192;2022-12-18T07:53:48;0.00;34.30
40534;DHT22;26233;51.894;10.192;2022-12-18T07:56:15;-0.10;34.20
40534;DHT22;26233;51.894;10.192;2022-12-18T07:58:43;-0.20;34.10
40534;DHT22;26233;51.894;10.192;2022-12-18T08:01:11;-0.30;34.00
40534;DHT22;26233;51.894;10.192;2022-12-18T08:03:39;-0.50;33.80
40534;DHT22;26233;51.894;10.192;2022-12-18T08:06:08;-0.50;34.00
40534;DHT22;26233;51.894;10.192;2022-12-18T08:08:36;-0.70;33.80
40534;DHT22;26233;51.894;10.192;2022-12-18T08:11:07;-0.80;33.80
40534;DHT22;26233;51.894;10.192;2022-12-18T08:13:34;-0.90;33.80
40534;DHT22;26233;51.894;10.192;2022-12-18T08:16:04;-1.00;34.00
40534;DHT22;26233;51.894;10.192;2022-12-18T08:18:37;-1.00;34.30
40534;DHT22;26233;51.894;10.192;2022-12-18T08:21:08;-1.00;34.50
40534;DHT22;26233;51.894;10.192;2022-12-18T08:23:38;-0.90;34.80
40534;DHT22;26233;51.894;10.192;2022-12-18T08:26:06;-0.80;35.10
40534;DHT22;26233;51.894;10.192;2022-12-18T08:28:33;-0.60;35.30
40534;DHT22;26233;51.894;10.192;2022-12-18T08:31:05;-0.50;35.40
40534;DHT22;26233;51.894;10.192;2022-12-18T08:33:34;-0.30;35.50
40534;DHT22;26233;51.894;10.192;2022-12-18T08:36:06;-0.10;35.60
40534;DHT22;26233;51.894;10.192;2022-12-18T08:38:33;0.00;35.50
40534;DHT22;26233;51.894;10.192;2022-12-18T08:41:01;0.20;35.60
40534;DHT22;26233;51.894;10.192;2022-12-18T08:43:30;0.30;35.70
40534;DHT22;26233;51.894;10.192;2022-12-18T08:46:16;0.50;35.70
40534;DHT22;26233;51.894;10.192;2022-12-18T08:48:44;0.60;35.70
40534;DHT22;26233;51.894;10.192;2022-12-18T08:51:11;0.80;36.10
40534;DHT22;26233;51.894;10.192;2022-12-18T08:53:38;1.10;36.80
40534;DHT22;26233;51.894;10.192;2022-12-18T08:56:06;1.50;37.20
40534;DHT22;26233;51.894;10.192;2022-12-18T08:58:33;1.90;37.60
40534;DHT22;26233;51.894;10.192;2022-12-18T09:01:00;2.40;38.10
40534;DHT22;26233;51.894;10.192;2022-12-18T09:03:29;2.90;38.20
40534;DHT22;26233;51.894;10.192;2022-12-18T09:05:56;3.40;38.30
40534;DHT22;26233;51.894;10.192;2022-12-18T09:08:24;3.90;38.50
40534;DHT22;26233;51.894;10.192;2022-12-18T09:10:54;4.40;38.50
40534;DHT22;26233;51.894;10.192;2022-12-18T09:13:22;4.90;38.30
40534;DHT22;26233;51.894;10.192;2022-12-18T09:15:51;5.30;38.20
40534;DHT22;26233;51.894;10.192;2022-12-18T09:18:20;5.70;38.00
40534;DHT22;26233;51.894;10.192;2022-12-18T09:20:49;6.10;37.50
40534;DHT22;26233;51.894;10.192;2022-12-18T09:23:18;6.40;37.30
40534;DHT22;26233;51.894;10.192;2022-12-18T09:25:45;6.50;36.60
40534;DHT22;26233;51.894;10.192;2022-12-18T09:28:13;6.70;36.10
40534;DHT22;26233;51.894;10.192;2022-12-18T09:30:42;6.80;36.00
40534;DHT22;26233;51.894;10.192;2022-12-18T09:33:12;6.80;35.80
40534;DHT22;26233;51.894;10.192;2022-12-18T09:35:40;6.90;36.00
40534;DHT22;26233;51.894;10.192;2022-12-18T09:38:12;7.00;36.10
40534;DHT22;26233;51.894;10.192;2022-12-18T09:40:43;7.00;35.70
40534;DHT22;26233;51.894;10.192;2022-12-18T09:43:16;6.90;35.00
40534;DHT22;26233;51.894;10.192;2022-12-18T09:45:47;7.00;35.20
40534;DHT22;26233;51.894;10.192;2022-12-18T09:48:20;7.00;35.20
40534;DHT22;26233;51.894;10.192;2022-12-18T09:50:51;6.90;34.80
40534;DHT22;26233;51.894;10.192;2022-12-18T09:53:26;6.80;34.30
40534;DHT22;26233;51.894;10.192;2022-12-18T09:55:57;6.70;34.20
40534;DHT22;26233;51.894;10.192;2022-12-18T09:58:28;6.50;34.00
40534;DHT22;26233;51.894;10.192;2022-12-18T10:01:00;6.30;33.90
40534;DHT22;26233;51.894;10.192;2022-12-18T10:03:27;6.10;33.60
40534;DHT22;26233;51.894;10.192;2022-12-18T10:06:01;5.90;33.30
40534;DHT22;26233;51.894;10.192;2022-12-18T10:08:39;5.70;33.30
40534;DHT22;26233;51.894;10.192;2022-12-18T10:11:25;5.40;33.00
40534;DHT22;26233;51.894;10.192;2022-12-18T10:14:00;5.20;33.10
40534;DHT22;26233;51.894;10.192;2022-12-18T10:16:37;5.00;33.50
40534;DHT22;26233;51.894;10.192;2022-12-18T10:19:23;4.80;33.30
40534;DHT22;26233;51.894;10.192;2022-12-18T10:22:00;4.70;33.50
40534;DHT22;26233;51.894;10.192;2022-12-18T10:24:39;4.70;33.90
40534;DHT22;26233;51.894;10.192;2022-12-18T10:27:14;4.70;34.00
40534;DHT22;26233;51.894;10.192;2022-12-18T10:29:43;4.70;34.20
40534;DHT22;26233;51.894;10.192;2022-12-18T10:32:15;4.80;34.50
40534;DHT22;26233;51.894;10.192;2022-12-18T10:34:48;5.00;34.70
40534;DHT22;26233;51.894;10.192;2022-12-18T10:37:17;5.00;34.70
40534;DHT22;26233;51.894;10.192;2022-12-18T10:40:06;5.20;35.10
40534;DHT22;26233;51.894;10.192;2022-12-18T10:42:36;5.40;34.90
40534;DHT22;26233;51.894;10.192;2022-12-18T10:45:07;5.60;35.30
40534;DHT22;26233;51.894;10.192;2022-12-18T10:47:37;5.80;35.00
40534;DHT22;26233;51.894;10.192;2022-12-18T10:50:23;6.00;35.20
40534;DHT22;26233;51.894;10.192;2022-12-18T10:52:55;6.20;35.30
40534;DHT22;26233;51.894;10.192;2022-12-18T10:55:30;6.60;36.30
40534;DHT22;26233;51.894;10.192;2022-12-18T10:58:15;6.90;36.40
40534;DHT22;26233;51.894;10.192;2022-12-18T11:01:03;7.30;35.90
40534;DHT22;26233;51.894;10.192;2022-12-18T11:03:34;7.60;35.70
40534;DHT22;26233;51.894;10.192;2022-12-18T11:06:05;7.80;35.50
40534;DHT22;26233;51.894;10.192;2022-12-18T11:08:34;8.00;35.60
40534;DHT22;26233;51.894;10.192;2022-12-18T11:11:03;8.00;35.40
40534;DHT22;26233;51.894;10.192;2022-12-18T11:13:31;8.00;34.90
40534;DHT22;26233;51.894;10.192;2022-12-18T11:15:59;7.90;34.50
40534;DHT22;26233;51.894;10.192;2022-12-18T11:18:28;7.70;33.90
40534;DHT22;26233;51.894;10.192;2022-12-18T11:20:58;7.60;33.70
40534;DHT22;26233;51.894;10.192;2022-12-18T11:23:27;7.40;33.50
40534;DHT22;26233;51.894;10.192;2022-12-18T11:25:56;7.20;33.40
40534;DHT22;26233;51.894;10.192;2022-12-18T11:28:36;7.00;33.30
40534;DHT22;26233;51.894;10.192;2022-12-18T11:31:20;6.70;32.80
40534;DHT22;26233;51.894;10.192;2022-12-18T11:33:57;6.40;32.60
40534;DHT22;26233;51.894;10.192;2022-12-18T11:36:32;6.10;32.50
40534;DHT22;26233;51.894;10.192;2022-12-18T11:39:09;5.90;32.50
40534;DHT22;26233;51.894;10.192;2022-12-18T11:41:43;5.60;32.30
40534;DHT22;26233;51.894;10.192;2022-12-18T11:44:40;5.30;32.30
40534;DHT22;26233;51.894;10.192;2022-12-18T11:47:15;5.10;32.70
40534;DHT22;26233;51.894;10.192;2022-12-18T11:49:49;5.00;33.00
40534;DHT22;26233;51.894;10.192;2022-12-18T11:52:19;4.90;33.20
40534;DHT22;26233;51.894;10.192;2022-12-18T11:54:51;4.80;33.00
40534;DHT22;26233;51.894;10.192;2022-12-18T11:57:28;4.70;32.70
40534;DHT22;26233;51.894;10.192;2022-12-18T12:00:09;4.50;32.70
40534;DHT22;26233;51.894;10.192;2022-12-18T12:03:04;4.30;32.60
40534;DHT22;26233;51.894;10.192;2022-12-18T12:05:48;4.20;32.70
40534;DHT22;26233;51.894;10.192;2022-12-18T12:08:26;4.00;32.90
40534;DHT22;26233;51.894;10.192;2022-12-18T12:11:08;3.90;33.00
40534;DHT22;26233;51.894;10.192;2022-12-18T12:14:01;3.80;33.20
40534;DHT22;26233;51.894;10.192;2022-12-18T12:16:46;3.80;33.40
40534;DHT22;26233;51.894;10.192;2022-12-18T12:19:27;3.90;33.60
40534;DHT22;26233;51.894;10.192;2022-12-18T12:22:06;3.90;33.70
40534;DHT22;26233;51.894;10.192;2022-12-18T12:24:47;3.90;33.80
40534;DHT22;26233;51.894;10.192;2022-12-18T12:27:24;4.00;33.90
40534;DHT22;26233;51.894;10.192;2022-12-18T12:30:03;4.00;33.90
40534;DHT22;26233;51.894;10.192;2022-12-18T12:33:00;4.00;33.90
40534;DHT22;26233;51.894;10.192;2022-12-18T12:35:42;4.00;33.80
40534;DHT22;26233;51.894;10.192;2022-12-18T12:38:19;4.10;34.00
40534;DHT22;26233;51.894;10.192;2022-12-18T12:40:51;4.10;33.90
40534;DHT22;26233;51.894;10.192;2022-12-18T12:43:26;4.10;33.80
40534;DHT22;26233;51.894;10.192;2022-12-18T12:45:58;4.00;33.80
40534;DHT22;26233;51.894;10.192;2022-12-18T12:48:37;4.00;33.80
40534;DHT22;26233;51.894;10.192;2022-12-18T12:51:13;4.00;34.40
40534;DHT22;26233;51.894;10.192;2022-12-18T12:53:43;3.90;33.80
40534;DHT22;26233;51.894;10.192;2022-12-18T12:56:13;3.90;33.80
40534;DHT22;26233;51.894;10.192;2022-12-18T12:58:49;3.90;33.80
40534;DHT22;26233;51.894;10.192;2022-12-18T13:01:33;3.80;33.70
40534;DHT22;26233;51.894;10.192;2022-12-18T13:04:14;3.80;33.60
40534;DHT22;26233;51.894;10.192;2022-12-18T13:06:52;3.70;33.50
40534;DHT22;26233;51.894;10.192;2022-12-18T13:09:22;3.50;33.50
40534;DHT22;26233;51.894;10.192;2022-12-18T13:11:49;3.50;33.60
40534;DHT22;26233;51.894;10.192;2022-12-18T13:14:36;3.40;33.50
40534;DHT22;26233;51.894;10.192;2022-12-18T13:17:27;3.30;33.60
40534;DHT22;26233;51.894;10.192;2022-12-18T13:20:12;3.30;33.70
40534;DHT22;26233;51.894;10.192;2022-12-18T13:22:43;3.20;33.60
40534;DHT22;26233;51.894;10.192;2022-12-18T13:25:27;3.10;33.60
40534;DHT22;26233;51.894;10.192;2022-12-18T13:28:10;3.00;33.50
40534;DHT22;26233;51.894;10.192;2022-12-18T13:30:47;2.90;33.50
40534;DHT22;26233;51.894;10.192;2022-12-18T13:33:40;2.90;33.60
40534;DHT22;26233;51.894;10.192;2022-12-18T13:36:28;2.80;33.60
40534;DHT22;26233;51.894;10.192;2022-12-18T13:39:22;2.70;33.60
40534;DHT22;26233;51.894;10.192;2022-12-18T13:41:53;2.70;33.80
40534;DHT22;26233;51.894;10.192;2022-12-18T13:44:32;2.60;33.80
40534;DHT22;26233;51.894;10.192;2022-12-18T13:47:00;2.60;33.80
40534;DHT22;26233;51.894;10.192;2022-12-18T13:49:37;2.60;33.80
40534;DHT22;26233;51.894;10.192;2022-12-18T13:52:17;2.60;33.80
40534;DHT22;26233;51.894;10.192;2022-12-18T13:54:50;2.50;33.80
40534;DHT22;26233;51.894;10.192;2022-12-18T13:57:29;2.50;33.80
40534;DHT22;26233;51.894;10.192;2022-12-18T13:59:58;2.40;33.70
40534;DHT22;26233;51.894;10.192;2022-12-18T14:02:30;2.40;33.70
40534;DHT22;26233;51.894;10.192;2022-12-18T14:05:00;2.30;33.70
40534;DHT22;26233;51.894;10.192;2022-12-18T14:07:29;2.30;33.80
40534;DHT22;26233;51.894;10.192;2022-12-18T14:09:58;2.20;33.80
40534;DHT22;26233;51.894;10.192;2022-12-18T14:12:29;2.20;33.90
40534;DHT22;26233;51.894;10.192;2022-12-18T14:15:25;2.20;34.00
40534;DHT22;26233;51.894;10.192;2022-12-18T14:18:01;2.20;34.00
40534;DHT22;26233;51.894;10.192;2022-12-18T14:20:31;2.20;34.00
40534;DHT22;26233;51.894;10.192;2022-12-18T14:23:00;2.20;34.00
40534;DHT22;26233;51.894;10.192;2022-12-18T14:25:29;2.20;34.00
40534;DHT22;26233;51.894;10.192;2022-12-18T14:28:07;2.10;34.60
40534;DHT22;26233;51.894;10.192;2022-12-18T14:30:40;2.10;34.10
40534;DHT22;26233;51.894;10.192;2022-12-18T14:33:10;2.10;34.00
40534;DHT22;26233;51.894;10.192;2022-12-18T14:35:40;2.00;33.90
40534;DHT22;26233;51.894;10.192;2022-12-18T14:38:20;2.00;34.50
40534;DHT22;26233;51.894;10.192;2022-12-18T14:40:56;1.90;33.70
40534;DHT22;26233;51.894;10.192;2022-12-18T14:43:24;1.90;33.70
40534;DHT22;26233;51.894;10.192;2022-12-18T14:45:55;1.80;33.70
40534;DHT22;26233;51.894;10.192;2022-12-18T14:48:35;1.80;33.70
40534;DHT22;26233;51.894;10.192;2022-12-18T14:51:05;1.60;33.60
40534;DHT22;26233;51.894;10.192;2022-12-18T14:53:37;1.70;33.70
40534;DHT22;26233;51.894;10.192;2022-12-18T14:56:16;1.70;33.70
40534;DHT22;26233;51.894;10.192;2022-12-18T14:58:49;1.70;33.80
40534;DHT22;26233;51.894;10.192;2022-12-18T15:01:20;1.70;33.80
40534;DHT22;26233;51.894;10.192;2022-12-18T15:03:50;1.70;33.80
40534;DHT22;26233;51.894;10.192;2022-12-18T15:06:31;1.60;33.80
40534;DHT22;26233;51.894;10.192;2022-12-18T15:09:03;1.60;34.50
40534;DHT22;26233;51.894;10.192;2022-12-18T15:11:43;1.60;33.80
40534;DHT22;26233;51.894;10.192;2022-12-18T15:14:32;1.60;33.90
40534;DHT22;26233;51.894;10.192;2022-12-18T15:17:03;1.50;33.70
40534;DHT22;26233;51.894;10.192;2022-12-18T15:19:36;1.50;33.70
40534;DHT22;26233;51.894;10.192;2022-12-18T15:22:22;1.40;33.70
40534;DHT22;26233;51.894;10.192;2022-12-18T15:24:54;1.40;33.70
40534;DHT22;26233;51.894;10.192;2022-12-18T15:27:25;1.40;33.70
40534;DHT22;26233;51.894;10.192;2022-12-18T15:30:16;1.30;33.70
40534;DHT22;26233;51.894;10.192;2022-12-18T15:32:46;1.30;33.70
40534;DHT22;26233;51.894;10.192;2022-12-18T15:35:17;1.30;33.70
40534;DHT22;26233;51.894;10.192;2022-12-18T15:37:45;1.30;33.70
40534;DHT22;26233;51.894;10.192;2022-12-18T15:40:16;1.30;33.80
40534;DHT22;26233;51.894;10.192;2022-12-18T15:42:44;1.30;33.80
40534;DHT22;26233;51.894;10.192;2022-12-18T15:45:30;1.30;33.80
40534;DHT22;26233;51.894;10.192;2022-12-18T15:47:57;1.30;33.80
40534;DHT22;26233;51.894;10.192;2022-12-18T15:50:25;1.30;33.80
40534;DHT22;26233;51.894;10.192;2022-12-18T15:52:53;1.20;33.70
40534;DHT22;26233;51.894;10.192;2022-12-18T15:55:24;1.20;33.70
40534;DHT22;26233;51.894;10.192;2022-12-18T15:58:10;1.10;33.70